Terminal Aerodrome Forecast
Issued by NWS Cleveland, OH

Home | Current Version | Previous Version | Text Only | Print | Product List | Glossary On
Versions: 1 2 3 4 5 6 7 8 9 10 11 12 13 14 15 16 17 18 19 20 21 22 23 24 25 26 27 28
442
FTUS41 KCLE 231236 AAA
TAFTOL
TAF AMD
KTOL 231236Z 2313/2412 23011KT P6SM BKN019
      TEMPO 2313/2317 5SM BR BKN022
     FM231700 27009KT P6SM BKN035
     FM232100 33006KT P6SM BKN035
     FM240000 05006KT 6SM BR OVC025
     FM240400 08006KT 3SM -SHRA BR OVC012
     FM241100 16008KT 4SM -SHRA BR OVC008=

USA.gov is the U.S. government's official web portal to all federal, state and local government web resources and services.